Time;durP1;ratioP1;P1;durP2;ratioP2;P2;SDS_P1;SDS_P2;PMS_P1;PMS_P2;Temp;Humidity;BMP_temperature;BMP_pressure;BME280_temperature;BME280_humidity;BME280_pressure;Samples;Min_cycle;Max_cycle;Signal;HPM_P1;HPM_P2
2021/08/16 00:00:06;;;;;;;10.20;7.65;;;691.90;1305.60;;;;;;5095074;28;20020;-69
2021/08/16 00:02:40;;;;;;;14.90;7.40;;;691.90;1305.60;;;;;;5094695;28;20032;-69
2021/08/16 00:05:14;;;;;;;15.00;7.95;;;691.80;1305.60;;;;;;5094711;28;20051;-69
2021/08/16 00:07:45;;;;;;;9.70;7.20;;;691.80;1280.00;;;;;;5094998;28;20380;-69
2021/08/16 00:10:18;;;;;;;12.30;7.32;;;691.90;1280.00;;;;;;5094902;28;20175;-69
2021/08/16 00:12:52;;;;;;;15.35;7.80;;;691.90;1280.00;;;;;;5094746;28;20117;-69
2021/08/16 00:15:23;;;;;;;15.52;8.10;;;691.90;1280.00;;;;;;5094870;28;20031;-69
2021/08/16 00:18:00;;;;;;;13.65;7.70;;;691.90;1280.00;;;;;;5094895;28;20030;-69
2021/08/16 00:20:32;;;;;;;19.83;7.85;;;691.80;1254.40;;;;;;5094653;28;20020;-69
2021/08/16 00:23:03;;;;;;;13.88;7.68;;;691.90;1280.00;;;;;;5094644;28;20028;-69
2021/08/16 00:25:35;;;;;;;17.38;7.65;;;691.90;1280.00;;;;;;5094622;28;20024;-69
2021/08/16 00:28:07;;;;;;;15.85;8.38;;;691.90;1280.00;;;;;;5094521;28;20111;-69
2021/08/16 00:30:37;;;;;;;15.95;8.95;;;691.90;1280.00;;;;;;5094407;28;20047;-69
2021/08/16 00:33:09;;;;;;;18.40;8.18;;;691.80;1305.60;;;;;;5094332;28;20032;-69
2021/08/16 00:35:40;;;;;;;14.50;7.90;;;691.90;1280.00;;;;;;5094396;28;20362;-69
2021/08/16 00:38:12;;;;;;;21.95;8.63;;;691.80;1305.60;;;;;;5094453;28;20031;-70
2021/08/16 00:40:46;;;;;;;23.15;8.60;;;691.80;1280.00;;;;;;5094155;28;20025;-69
2021/08/16 00:43:17;;;;;;;22.60;8.38;;;691.80;1305.60;;;;;;5094085;28;20059;-69
2021/08/16 00:45:49;;;;;;;13.30;7.43;;;691.70;1305.60;;;;;;5094115;28;20158;-69
2021/08/16 00:48:23;;;;;;;20.27;8.27;;;691.70;1305.60;;;;;;5094226;28;20069;-69
2021/08/16 00:50:52;;;;;;;;;;;691.80;1280.00;;;;;;5094436;28;20103;-69
2021/08/16 00:53:24;;;;;;;14.93;8.13;;;691.70;1280.00;;;;;;5092253;28;19904;-69
2021/08/16 00:55:58;;;;;;;12.13;8.30;;;691.70;1305.60;;;;;;5094229;28;20072;-69
2021/08/16 00:58:30;;;;;;;9.38;7.82;;;691.50;1305.60;;;;;;5094051;28;20107;-69
2021/08/16 01:01:02;;;;;;;11.48;7.78;;;691.50;1305.60;;;;;;5093935;28;20016;-69
2021/08/16 01:03:34;;;;;;;14.80;8.48;;;691.60;1305.60;;;;;;5093753;28;20031;-69
2021/08/16 01:06:05;;;;;;;12.15;8.27;;;691.60;1305.60;;;;;;5093818;28;20138;-69
2021/08/16 01:08:37;;;;;;;10.55;8.10;;;691.50;1305.60;;;;;;5093971;28;20020;-69
2021/08/16 01:11:09;;;;;;;14.10;7.90;;;691.50;1331.20;;;;;;5094024;28;20027;-69
2021/08/16 01:13:40;;;;;;;10.75;7.53;;;691.50;1331.20;;;;;;5093654;28;20025;-69
2021/08/16 01:16:13;;;;;;;18.15;8.48;;;691.50;1331.20;;;;;;5093973;28;20098;-69
2021/08/16 01:18:49;;;;;;;12.43;8.57;;;691.50;1331.20;;;;;;5093684;28;20023;-69
2021/08/16 01:21:21;;;;;;;15.23;8.27;;;691.40;1356.80;;;;;;5093923;28;20028;-69
2021/08/16 01:23:55;;;;;;;13.45;8.30;;;691.30;1382.40;;;;;;5094076;28;20035;-69
2021/08/16 01:26:31;;;;;;;12.07;7.72;;;691.30;1356.80;;;;;;5092468;28;20141;-69
2021/08/16 01:29:18;;;;;;;10.68;7.95;;;691.30;1356.80;;;;;;5093777;28;20023;-69
2021/08/16 01:31:49;;;;;;;13.40;8.07;;;691.30;1356.80;;;;;;5093719;28;20056;-69
2021/08/16 01:34:21;;;;;;;17.35;8.70;;;691.20;1382.40;;;;;;5093599;28;20020;-69
2021/08/16 01:36:53;;;;;;;10.35;7.85;;;691.20;1356.80;;;;;;5093434;28;20016;-69
2021/08/16 01:39:25;;;;;;;14.07;8.13;;;666.50;1382.40;;;;;;5093440;28;20024;-69
2021/08/16 01:41:57;;;;;;;12.23;8.15;;;666.50;1356.80;;;;;;5093424;28;20031;-69
2021/08/16 01:44:29;;;;;;;10.80;7.32;;;691.20;1382.40;;;;;;5093630;28;20404;-69
2021/08/16 01:47:03;;;;;;;13.57;8.10;;;666.40;1382.40;;;;;;5093383;28;20028;-69
2021/08/16 01:49:35;;;;;;;11.35;7.63;;;666.40;1382.40;;;;;;5093428;28;20081;-69
2021/08/16 01:52:06;;;;;;;13.15;8.05;;;666.40;1382.40;;;;;;5093430;28;20024;-69
2021/08/16 01:54:39;;;;;;;12.73;8.80;;;666.30;1382.40;;;;;;5093591;28;20028;-69
2021/08/16 01:57:13;;;;;;;11.20;8.13;;;666.30;1382.40;;;;;;5093500;28;20024;-69
2021/08/16 01:59:47;;;;;;;14.57;7.97;;;666.40;1382.40;;;;;;5093399;28;20050;-69
2021/08/16 02:02:18;;;;;;;11.20;8.50;;;666.30;1408.00;;;;;;5093234;28;20081;-69
2021/08/16 02:04:50;;;;;;;13.20;8.32;;;666.20;1408.00;;;;;;5094716;28;20075;-69
2021/08/16 02:07:22;;;;;;;12.52;8.77;;;666.20;1408.00;;;;;;5097243;28;20028;-69
2021/08/16 02:09:53;;;;;;;17.40;8.02;;;666.10;1433.60;;;;;;5097165;28;20035;-69
2021/08/16 02:12:24;;;;;;;13.60;8.10;;;666.10;1433.60;;;;;;5097161;28;20024;-69
2021/08/16 02:14:59;;;;;;;13.73;8.35;;;666.10;1433.60;;;;;;5097272;28;20044;-69
2021/08/16 02:17:31;;;;;;;14.38;9.27;;;666.10;1433.60;;;;;;5096931;28;20020;-69
2021/08/16 02:20:06;;;;;;;13.38;8.52;;;666.00;1459.20;;;;;;5096971;28;20020;-69
2021/08/16 02:22:40;;;;;;;15.35;8.75;;;665.80;1433.60;;;;;;5096941;28;20052;-69
2021/08/16 02:25:09;;;;;;;;;;;665.80;1433.60;;;;;;5097600;28;20024;-69
2021/08/16 02:27:46;;;;;;;22.30;9.45;;;665.80;1433.60;;;;;;5096891;28;20003;-69
2021/08/16 02:30:19;;;;;;;14.35;8.43;;;665.80;1433.60;;;;;;5096901;28;20107;-69
2021/08/16 02:32:51;;;;;;;15.32;9.00;;;665.80;1433.60;;;;;;5096839;28;20024;-68
2021/08/16 02:35:20;;;;;;;20.20;9.48;;;665.70;1433.60;;;;;;5096448;28;20035;-69
2021/08/16 02:37:51;;;;;;;13.75;9.20;;;665.70;1433.60;;;;;;5096764;28;20043;-69
2021/08/16 02:40:25;;;;;;;11.50;8.55;;;665.70;1433.60;;;;;;5096842;28;20020;-69
2021/08/16 02:42:59;;;;;;;12.60;9.27;;;665.70;1408.00;;;;;;5096625;28;20028;-69
2021/08/16 02:45:28;;;;;;;;;;;665.70;1408.00;;;;;;5096836;28;20119;-69
2021/08/16 02:47:59;;;;;;;13.30;9.23;;;665.70;1433.60;;;;;;5096310;28;19904;-69
2021/08/16 02:50:31;;;;;;;17.58;9.15;;;665.70;1408.00;;;;;;5096118;28;20020;-69
2021/08/16 02:53:03;;;;;;;9.38;8.05;;;665.70;1408.00;;;;;;5096621;28;20439;-69
2021/08/16 02:55:34;;;;;;;12.10;8.90;;;665.70;1408.00;;;;;;5096357;28;20020;-69
2021/08/16 02:58:05;;;;;;;12.35;8.25;;;665.70;1408.00;;;;;;5096381;28;20020;-69
2021/08/16 03:00:37;;;;;;;14.90;9.32;;;665.70;1408.00;;;;;;5096186;28;20020;-69
2021/08/16 03:03:11;;;;;;;12.85;9.27;;;665.70;1408.00;;;;;;5096347;28;20087;-69
2021/08/16 03:05:42;;;;;;;12.65;9.43;;;665.60;1408.00;;;;;;5095877;28;20094;-69
2021/08/16 03:08:14;;;;;;;13.35;9.02;;;665.60;1433.60;;;;;;5096119;28;20016;-69
2021/08/16 03:10:45;;;;;;;12.70;9.02;;;665.60;1433.60;;;;;;5096359;28;20023;-69
2021/08/16 03:13:19;;;;;;;12.30;8.80;;;640.90;1408.00;;;;;;5096066;28;20051;-69
2021/08/16 03:15:51;;;;;;;16.80;8.80;;;640.80;1382.40;;;;;;5095593;28;20024;-69
2021/08/16 03:18:22;;;;;;;17.92;9.50;;;665.60;1408.00;;;;;;5095929;28;20054;-69
2021/08/16 03:20:54;;;;;;;11.63;8.55;;;640.80;1408.00;;;;;;5096559;28;20042;-69
2021/08/16 03:23:28;;;;;;;13.25;8.73;;;665.60;1433.60;;;;;;5096054;28;20047;-69
2021/08/16 03:26:00;;;;;;;17.63;7.85;;;665.60;1433.60;;;;;;5095633;28;20038;-69
2021/08/16 03:28:31;;;;;;;20.17;9.35;;;640.80;1408.00;;;;;;5095423;28;20053;-70
2021/08/16 03:31:03;;;;;;;21.90;8.90;;;640.80;1408.00;;;;;;5095689;28;20057;-69
2021/08/16 03:33:38;;;;;;;29.52;9.77;;;640.80;1408.00;;;;;;5094289;28;20024;-69
2021/08/16 03:36:09;;;;;;;19.40;9.23;;;640.80;1408.00;;;;;;5095456;28;20115;-69
2021/08/16 03:38:41;;;;;;;13.13;9.02;;;640.70;1408.00;;;;;;5095302;28;20031;-69
2021/08/16 03:41:13;;;;;;;14.82;9.27;;;640.70;1433.60;;;;;;5095229;28;20032;-69
2021/08/16 03:43:45;;;;;;;15.95;9.70;;;640.70;1433.60;;;;;;5095348;28;20020;-69
2021/08/16 03:46:19;;;;;;;14.40;9.13;;;640.70;1408.00;;;;;;5095343;28;20040;-69
2021/08/16 03:48:51;;;;;;;16.30;8.75;;;640.60;1408.00;;;;;;5095311;28;20032;-69
2021/08/16 03:51:22;;;;;;;29.15;10.65;;;640.70;1408.00;;;;;;5095229;28;20020;-69
2021/08/16 03:53:54;;;;;;;15.15;8.75;;;640.60;1408.00;;;;;;5095218;28;20027;-69
2021/08/16 03:56:25;;;;;;;20.70;10.77;;;640.60;1433.60;;;;;;5095088;28;20048;-70
2021/08/16 03:58:57;;;;;;;18.50;9.63;;;640.60;1433.60;;;;;;5095095;28;20024;-69
2021/08/16 04:01:26;;;;;;;15.95;9.90;;;640.60;1433.60;;;;;;5095067;28;20032;-69
2021/08/16 04:03:55;;;;;;;15.18;9.20;;;640.60;1433.60;;;;;;5094895;28;20046;-69
2021/08/16 04:06:29;;;;;;;16.73;9.02;;;640.60;1433.60;;;;;;5094719;28;20039;-69
2021/08/16 04:09:00;;;;;;;19.42;9.43;;;640.60;1433.60;;;;;;5094972;28;20024;-69
2021/08/16 04:11:32;;;;;;;14.50;9.88;;;640.60;1433.60;;;;;;5095129;28;20024;-69
2021/08/16 04:14:03;;;;;;;18.35;10.85;;;640.60;1433.60;;;;;;5095086;28;20339;-69
2021/08/16 04:16:35;;;;;;;21.33;11.88;;;640.60;1433.60;;;;;;5094516;28;20024;-69
2021/08/16 04:19:06;;;;;;;16.52;10.73;;;640.60;1433.60;;;;;;5094302;28;20052;-69
2021/08/16 04:21:38;;;;;;;15.23;11.32;;;640.60;1433.60;;;;;;5094478;28;20028;-69
2021/08/16 04:24:10;;;;;;;23.83;12.30;;;640.60;1433.60;;;;;;5094337;28;20067;-69
2021/08/16 04:26:41;;;;;;;24.02;12.82;;;640.60;1433.60;;;;;;5093711;28;20063;-69
2021/08/16 04:29:15;;;;;;;18.08;11.93;;;640.60;1433.60;;;;;;5094480;28;20051;-69
2021/08/16 04:31:44;;;;;;;;;;;640.60;1433.60;;;;;;5094778;28;20496;-69
2021/08/16 04:34:16;;;;;;;15.32;11.25;;;640.60;1433.60;;;;;;5093969;28;19911;-69
2021/08/16 04:36:50;;;;;;;17.10;12.02;;;640.60;1433.60;;;;;;5094132;28;20527;-69
2021/08/16 04:39:21;;;;;;;17.35;11.60;;;640.60;1433.60;;;;;;5094465;28;20472;-69
2021/08/16 04:41:51;;;;;;;17.65;11.60;;;640.60;1433.60;;;;;;5092916;28;20046;-69
2021/08/16 04:44:23;;;;;;;21.25;11.90;;;640.60;1433.60;;;;;;5094162;28;20110;-69
2021/08/16 04:46:55;;;;;;;16.25;11.52;;;640.60;1433.60;;;;;;5094060;28;20032;-69
2021/08/16 04:49:27;;;;;;;19.00;12.07;;;640.70;1433.60;;;;;;5094065;28;20027;-69
2021/08/16 04:51:58;;;;;;;18.38;11.35;;;640.70;1433.60;;;;;;5094190;28;20103;-69
2021/08/16 04:54:30;;;;;;;15.40;10.95;;;640.70;1433.60;;;;;;5094097;28;20099;-69
2021/08/16 04:57:01;;;;;;;27.83;11.95;;;640.80;1433.60;;;;;;5093990;28;20016;-69
2021/08/16 04:59:33;;;;;;;16.27;11.63;;;640.80;1433.60;;;;;;5094115;28;20458;-69
2021/08/16 05:02:04;;;;;;;17.40;10.95;;;640.80;1433.60;;;;;;5094322;28;20038;-69
2021/08/16 05:04:35;;;;;;;17.83;11.10;;;640.80;1433.60;;;;;;5093805;28;20032;-69
2021/08/16 05:07:07;;;;;;;19.63;11.25;;;640.80;1459.20;;;;;;5093725;28;20032;-69
2021/08/16 05:09:38;;;;;;;20.05;12.38;;;640.80;1433.60;;;;;;5093963;28;20032;-69
2021/08/16 05:12:11;;;;;;;19.65;11.80;;;640.80;1459.20;;;;;;5094229;28;20043;-69
2021/08/16 05:14:42;;;;;;;16.13;12.00;;;640.90;1433.60;;;;;;5093692;28;20020;-69
2021/08/16 05:17:13;;;;;;;14.43;11.50;;;640.90;1433.60;;;;;;5094107;28;20107;-69
2021/08/16 05:19:45;;;;;;;17.02;11.52;;;665.60;1484.80;;;;;;5093620;28;20109;-69
2021/08/16 05:22:16;;;;;;;15.23;11.45;;;665.60;1459.20;;;;;;5093827;28;20378;-69
2021/08/16 05:24:48;;;;;;;16.50;11.43;;;665.60;1459.20;;;;;;5093841;28;20050;-69
2021/08/16 05:27:19;;;;;;;17.30;11.93;;;665.70;1459.20;;;;;;5093731;28;20036;-69
2021/08/16 05:29:51;;;;;;;21.83;12.77;;;665.70;1459.20;;;;;;5093651;28;20361;-69
2021/08/16 05:32:22;;;;;;;16.33;12.63;;;665.70;1459.20;;;;;;5092717;28;20490;-69
2021/08/16 05:34:54;;;;;;;20.55;11.25;;;665.70;1459.20;;;;;;5093241;28;20420;-69
2021/08/16 05:37:25;;;;;;;16.60;11.57;;;665.70;1459.20;;;;;;5093695;28;20063;-69
2021/08/16 05:39:57;;;;;;;14.57;11.73;;;665.80;1459.20;;;;;;5097293;28;20044;-69
2021/08/16 05:42:30;;;;;;;14.50;11.88;;;665.80;1459.20;;;;;;5097565;28;20063;-69
2021/08/16 05:45:03;;;;;;;19.48;12.35;;;665.80;1484.80;;;;;;5097833;28;20058;-69
2021/08/16 05:47:35;;;;;;;15.68;11.40;;;666.00;1459.20;;;;;;5097487;28;20466;-69
2021/08/16 05:50:07;;;;;;;16.45;11.68;;;666.00;1459.20;;;;;;5097467;28;20039;-69
2021/08/16 05:52:39;;;;;;;13.35;11.95;;;666.10;1459.20;;;;;;5097590;28;20028;-69
2021/08/16 05:55:11;;;;;;;15.27;11.15;;;666.10;1459.20;;;;;;5097665;28;20023;-69
2021/08/16 05:57:43;;;;;;;13.35;11.73;;;666.20;1459.20;;;;;;5097419;28;20024;-69
2021/08/16 06:00:16;;;;;;;14.68;11.35;;;666.30;1459.20;;;;;;5097411;28;20466;-69
2021/08/16 06:02:48;;;;;;;15.13;11.07;;;666.30;1459.20;;;;;;5097451;28;20055;-69
2021/08/16 06:05:20;;;;;;;12.85;10.13;;;666.30;1459.20;;;;;;5096975;28;20047;-69
2021/08/16 06:07:51;;;;;;;23.63;11.27;;;666.40;1433.60;;;;;;5096982;28;20032;-69
2021/08/16 06:10:23;;;;;;;20.30;11.02;;;691.30;1408.00;;;;;;5097211;28;20020;-69
2021/08/16 06:12:49;;;;;;;12.43;10.55;;;691.20;1408.00;;;;;;5096274;28;20422;-69
2021/08/16 06:15:15;;;;;;;16.88;10.05;;;691.30;1408.00;;;;;;5095289;28;20051;-68
2021/08/16 06:17:41;;;;;;;17.33;10.55;;;691.40;1408.00;;;;;;5096668;28;20363;-68
2021/08/16 06:20:12;;;;;;;20.13;10.85;;;691.50;1408.00;;;;;;5096129;28;20069;-68
2021/08/16 06:22:43;;;;;;;16.67;10.32;;;691.60;1433.60;;;;;;5096327;28;20377;-68
2021/08/16 06:25:13;;;;;;;18.42;9.95;;;691.90;1382.40;;;;;;5096353;28;20023;-69
2021/08/16 06:27:39;;;;;;;15.90;10.23;;;691.80;1408.00;;;;;;5093397;28;20024;-68
2021/08/16 06:30:09;;;;;;;16.38;10.15;;;691.90;1382.40;;;;;;5096121;28;20024;-68
2021/08/16 06:32:36;;;;;;;16.40;10.38;;;692.10;1356.80;;;;;;5096246;28;20104;-68
2021/08/16 06:35:03;;;;;;;16.90;10.63;;;716.80;1382.40;;;;;;5095874;28;20547;-69
2021/08/16 06:37:29;;;;;;;37.35;11.00;;;716.80;1382.40;;;;;;5096235;28;20027;-68
2021/08/16 06:39:55;;;;;;;42.03;11.52;;;716.90;1382.40;;;;;;5096436;28;20464;-68
2021/08/16 06:42:21;;;;;;;50.30;12.82;;;717.20;1356.80;;;;;;5096355;28;20024;-71
2021/08/16 06:44:48;;;;;;;38.42;12.30;;;717.30;1331.20;;;;;;5096191;28;20016;-68
2021/08/16 06:47:15;;;;;;;27.75;10.80;;;717.60;1331.20;;;;;;5095182;28;20036;-68
2021/08/16 06:49:41;;;;;;;29.65;12.27;;;742.40;1331.20;;;;;;5095138;28;20482;-68
2021/08/16 06:52:13;;;;;;;26.20;10.88;;;742.70;1305.60;;;;;;5096001;28;20024;-69
2021/08/16 06:54:45;;;;;;;27.38;11.18;;;742.90;1305.60;;;;;;5096570;28;20360;-69
2021/08/16 06:57:16;;;;;;;20.75;10.15;;;743.20;1280.00;;;;;;5096323;28;20066;-69
2021/08/16 06:59:48;;;;;;;23.80;12.40;;;768.10;1254.40;;;;;;5096294;28;20021;-69
2021/08/16 07:02:22;;;;;;;20.92;12.20;;;768.40;1228.80;;;;;;5096307;28;20069;-69
2021/08/16 07:04:55;;;;;;;17.95;10.30;;;768.70;1203.20;;;;;;5095898;28;20044;-69
2021/08/16 07:07:30;;;;;;;15.98;10.15;;;793.60;1228.80;;;;;;5095801;28;20059;-69
2021/08/16 07:10:04;;;;;;;15.82;9.98;;;793.80;1203.20;;;;;;5095914;28;20028;-69
2021/08/16 07:12:36;;;;;;;14.70;10.18;;;793.80;1203.20;;;;;;5095995;28;20458;-69
2021/08/16 07:15:09;;;;;;;13.38;9.48;;;794.10;1203.20;;;;;;5095849;28;20031;-70
2021/08/16 07:17:40;;;;;;;11.68;9.35;;;794.40;1177.60;;;;;;5096386;28;20029;-70
2021/08/16 07:20:12;;;;;;;14.45;9.55;;;819.30;1152.00;;;;;;5095657;28;20074;-69
2021/08/16 07:22:46;;;;;;;14.82;9.95;;;819.70;1152.00;;;;;;5094421;28;20032;-69
2021/08/16 07:25:18;;;;;;;12.50;9.45;;;820.00;1100.80;;;;;;5095364;28;20017;-69
2021/08/16 07:27:49;;;;;;;14.40;9.15;;;844.80;1126.40;;;;;;5095305;28;20036;-69
2021/08/16 07:30:23;;;;;;;13.15;9.35;;;820.10;1075.20;;;;;;5095795;28;20028;-69
2021/08/16 07:32:58;;;;;;;14.02;8.75;;;844.80;1100.80;;;;;;5095366;28;20032;-69
2021/08/16 07:35:29;;;;;;;12.65;8.65;;;820.00;1049.60;;;;;;5095550;28;20027;-69
2021/08/16 07:38:03;;;;;;;14.70;8.43;;;819.90;1075.20;;;;;;5095115;28;20024;-69
2021/08/16 07:40:35;;;;;;;11.38;8.35;;;819.70;1075.20;;;;;;5093769;28;20035;-69
2021/08/16 07:43:07;;;;;;;15.88;8.93;;;819.80;1075.20;;;;;;5095859;28;20157;-69
2021/08/16 07:45:39;;;;;;;15.63;8.45;;;819.80;1075.20;;;;;;5095310;28;20028;-69
2021/08/16 07:48:11;;;;;;;14.30;8.80;;;819.90;1075.20;;;;;;5095462;28;20032;-69
2021/08/16 07:50:42;;;;;;;12.73;8.52;;;819.90;1049.60;;;;;;5094848;28;20012;-69
2021/08/16 07:53:14;;;;;;;13.52;8.70;;;819.80;1049.60;;;;;;5094980;28;20035;-69
2021/08/16 07:55:45;;;;;;;12.88;8.30;;;819.90;1049.60;;;;;;5095346;28;20081;-69
2021/08/16 07:58:17;;;;;;;18.88;8.02;;;844.90;1049.60;;;;;;5095036;28;20412;-69
2021/08/16 08:00:48;;;;;;;14.32;8.73;;;845.30;1024.00;;;;;;5095192;28;20024;-69
2021/08/16 08:03:20;;;;;;;12.38;8.27;;;845.70;998.40;;;;;;5095075;28;20024;-69
2021/08/16 08:05:51;;;;;;;13.23;7.60;;;870.60;998.40;;;;;;5094655;28;20513;-69
2021/08/16 08:08:25;;;;;;;13.20;8.30;;;870.80;947.20;;;;;;5093775;28;20040;-69
2021/08/16 08:10:57;;;;;;;14.85;8.57;;;871.20;947.20;;;;;;5094849;28;20043;-69
2021/08/16 08:13:31;;;;;;;14.23;8.25;;;896.00;921.60;;;;;;5094516;28;20028;-69
2021/08/16 08:16:02;;;;;;;11.43;7.63;;;896.10;921.60;;;;;;5094836;28;20028;-69
2021/08/16 08:18:34;;;;;;;11.43;8.00;;;896.50;896.00;;;;;;5094793;28;20020;-69
2021/08/16 08:21:06;;;;;;;16.40;8.18;;;896.70;896.00;;;;;;5094600;28;20020;-70
2021/08/16 08:23:38;;;;;;;14.45;8.13;;;921.60;896.00;;;;;;5094788;28;20032;-69
2021/08/16 08:26:11;;;;;;;10.70;7.53;;;921.90;921.60;;;;;;5094469;28;20036;-69
2021/08/16 08:28:43;;;;;;;15.20;7.70;;;921.90;896.00;;;;;;5094520;28;20086;-69
2021/08/16 08:31:14;;;;;;;9.73;7.65;;;922.10;896.00;;;;;;5093133;28;20142;-69
2021/08/16 08:33:45;;;;;;;11.02;7.82;;;922.50;870.40;;;;;;5092823;28;20541;-69
2021/08/16 08:36:17;;;;;;;10.57;7.40;;;947.20;870.40;;;;;;5094297;28;20129;-69
2021/08/16 08:38:51;;;;;;;16.27;7.40;;;947.40;870.40;;;;;;5094377;28;20027;-69
2021/08/16 08:41:27;;;;;;;13.68;7.70;;;947.40;844.80;;;;;;5094249;28;20027;-69
2021/08/16 08:43:59;;;;;;;13.57;7.53;;;947.60;844.80;;;;;;5094302;28;20024;-69
2021/08/16 08:46:32;;;;;;;11.48;7.43;;;947.80;844.80;;;;;;5093999;28;20062;-69
2021/08/16 08:49:08;;;;;;;16.70;7.43;;;948.00;844.80;;;;;;5094055;28;20028;-69
2021/08/16 08:51:46;;;;;;;11.55;7.80;;;972.80;870.40;;;;;;5094311;28;20030;-69
2021/08/16 08:54:19;;;;;;;13.95;7.38;;;972.90;844.80;;;;;;5094265;28;20069;-69
2021/08/16 08:56:51;;;;;;;17.05;7.80;;;973.20;844.80;;;;;;5093997;28;20458;-70
2021/08/16 08:59:23;;;;;;;17.42;6.97;;;973.30;819.20;;;;;;5094125;28;20027;-69
2021/08/16 09:02:02;;;;;;;12.30;6.68;;;973.30;819.20;;;;;;5093812;28;20024;-69
2021/08/16 09:04:35;;;;;;;9.75;6.15;;;973.50;793.60;;;;;;5093968;28;20043;-70
2021/08/16 09:07:06;;;;;;;24.25;6.82;;;973.60;793.60;;;;;;5092305;28;20524;-70
2021/08/16 09:09:38;;;;;;;22.48;7.57;;;998.40;793.60;;;;;;5093888;28;20043;-69
2021/08/16 09:12:10;;;;;;;19.58;7.40;;;998.60;768.00;;;;;;5094040;28;20024;-70
2021/08/16 09:14:46;;;;;;;11.50;6.28;;;998.70;768.00;;;;;;5093090;28;20381;-69
2021/08/16 09:17:25;;;;;;;15.18;6.35;;;998.80;768.00;;;;;;5090174;28;20036;-69
2021/08/16 09:19:51;;;;;;;11.85;6.25;;;998.80;768.00;;;;;;5093412;28;20025;-69
2021/08/16 09:22:31;;;;;;;15.32;6.82;;;998.90;742.40;;;;;;5092229;28;20024;-69
2021/08/16 09:25:21;;;;;;;10.93;6.75;;;998.90;768.00;;;;;;5092101;28;20034;-70
2021/08/16 09:27:51;;;;;;;9.43;6.80;;;999.10;742.40;;;;;;5090516;28;20478;-70
2021/08/16 09:30:37;;;;;;;24.65;7.35;;;1024.00;742.40;;;;;;5092122;28;20017;-70
2021/08/16 09:33:16;;;;;;;9.55;6.70;;;999.30;768.00;;;;;;5090107;28;20020;-69
2021/08/16 09:35:56;;;;;;;18.27;7.57;;;999.00;742.40;;;;;;5089699;28;20414;-70
2021/08/16 09:38:41;;;;;;;14.95;7.82;;;998.90;742.40;;;;;;5089809;28;20024;-70
2021/08/16 09:41:30;;;;;;;14.25;7.50;;;998.70;742.40;;;;;;5090450;28;20012;-70
2021/08/16 09:44:14;;;;;;;20.17;7.47;;;998.90;742.40;;;;;;5091530;28;20071;-70
2021/08/16 09:46:44;;;;;;;12.23;6.47;;;998.90;742.40;;;;;;5089333;28;20111;-70
2021/08/16 09:49:21;;;;;;;19.13;7.60;;;998.90;742.40;;;;;;5091936;28;20027;-70
2021/08/16 09:52:12;;;;;;;10.10;6.53;;;999.00;716.80;;;;;;5090493;28;20032;-70
2021/08/16 09:54:44;;;;;;;23.27;7.43;;;999.10;691.20;;;;;;5089196;28;20070;-69
2021/08/16 09:57:12;;;;;;;27.25;6.55;;;999.30;691.20;;;;;;5091855;28;20029;-70
2021/08/16 09:59:44;;;;;;;14.82;6.78;;;1024.10;691.20;;;;;;5089415;28;20024;-69
2021/08/16 10:02:12;;;;;;;10.68;6.05;;;1024.20;691.20;;;;;;5091716;28;20024;-69
2021/08/16 10:04:38;;;;;;;14.13;6.38;;;1024.30;665.60;;;;;;5091497;28;20048;-70
2021/08/16 10:07:09;;;;;;;14.90;6.28;;;1024.40;665.60;;;;;;5091769;28;20039;-69
2021/08/16 10:09:36;;;;;;;10.35;6.47;;;1024.40;665.60;;;;;;5089449;28;20028;-69
2021/08/16 10:12:08;;;;;;;9.05;5.82;;;1024.60;665.60;;;;;;5092189;28;20020;-70
2021/08/16 10:14:38;;;;;;;10.55;5.80;;;1024.60;665.60;;;;;;5091712;28;20070;-70
2021/08/16 10:17:09;;;;;;;8.90;5.20;;;1024.80;665.60;;;;;;5091715;28;20064;-69
2021/08/16 10:19:44;;;;;;;10.63;5.32;;;1024.80;640.00;;;;;;5092652;28;20044;-70
2021/08/16 10:22:15;;;;;;;9.23;5.10;;;1024.80;640.00;;;;;;5092905;28;20036;-70
2021/08/16 10:24:43;;;;;;;14.23;5.72;;;1024.80;640.00;;;;;;5093110;28;20099;-70
2021/08/16 10:27:11;;;;;;;9.73;5.25;;;1024.80;640.00;;;;;;5095923;28;20044;-69
2021/08/16 10:29:40;;;;;;;12.20;5.93;;;1024.80;640.00;;;;;;5096147;28;20094;-69
2021/08/16 10:32:20;;;;;;;13.32;6.38;;;1049.60;691.20;;;;;;5096206;28;20099;-69
2021/08/16 10:34:46;;;;;;;12.05;6.18;;;1049.70;665.60;;;;;;5094907;28;20023;-69
2021/08/16 10:37:15;;;;;;;10.43;6.50;;;1049.80;691.20;;;;;;5096169;28;20031;-70
2021/08/16 10:39:46;;;;;;;10.55;6.55;;;1049.80;665.60;;;;;;5094006;28;20032;-70
2021/08/16 10:42:14;;;;;;;16.13;5.80;;;1049.90;691.20;;;;;;5095990;28;20020;-69
2021/08/16 10:44:42;;;;;;;9.65;5.47;;;1049.90;691.20;;;;;;5095804;28;20115;-68
2021/08/16 10:47:10;;;;;;;16.45;5.75;;;1050.00;691.20;;;;;;5095827;28;20027;-69
2021/08/16 10:49:40;;;;;;;12.68;5.45;;;1050.10;665.60;;;;;;5095719;28;20477;-69
2021/08/16 10:52:25;;;;;;;11.55;5.07;;;1050.20;665.60;;;;;;5092992;28;20479;-69
2021/08/16 10:55:06;;;;;;;18.15;6.45;;;1050.10;665.60;;;;;;5092587;28;20020;-70
2021/08/16 10:57:39;;;;;;;19.77;6.30;;;1050.10;665.60;;;;;;5075831;28;20025;-70
2021/08/16 11:00:13;;;;;;;21.58;5.90;;;1050.10;665.60;;;;;;5075635;28;20025;-69
2021/08/16 11:02:45;;;;;;;17.75;6.53;;;1050.20;665.60;;;;;;5075927;28;20396;-69
2021/08/16 11:05:16;;;;;;;9.05;5.47;;;1050.20;665.60;;;;;;5075840;28;20057;-70
2021/08/16 11:07:51;;;;;;;16.00;5.95;;;1050.30;665.60;;;;;;5075841;28;20044;-70
2021/08/16 11:10:23;;;;;;;11.70;5.00;;;1050.20;640.00;;;;;;5075922;28;20025;-70
2021/08/16 11:12:49;;;;;;;8.82;5.18;;;1050.30;640.00;;;;;;5090865;28;20032;-69
2021/08/16 11:15:21;;;;;;;16.75;5.50;;;1050.20;640.00;;;;;;5094338;28;20012;-70
2021/08/16 11:17:50;;;;;;;15.73;6.32;;;1050.30;665.60;;;;;;5094637;28;20044;-69
2021/08/16 11:20:21;;;;;;;15.43;5.47;;;1050.50;640.00;;;;;;5091463;28;20032;-74
2021/08/16 11:22:59;;;;;;;13.57;5.63;;;1050.50;614.40;;;;;;5095126;28;20030;-69
2021/08/16 11:25:30;;;;;;;18.67;5.65;;;1050.50;614.40;;;;;;5093717;28;20036;-69
2021/08/16 11:28:04;;;;;;;13.13;5.32;;;1050.50;614.40;;;;;;5094974;28;20031;-69
2021/08/16 11:30:33;;;;;;;12.75;4.88;;;1050.50;614.40;;;;;;5094341;28;20028;-70
2021/08/16 11:33:03;;;;;;;14.43;5.70;;;1075.20;588.80;;;;;;5091362;28;20043;-69
2021/08/16 11:35:31;;;;;;;15.27;5.78;;;1075.20;588.80;;;;;;5094092;28;20047;-69
2021/08/16 11:38:12;;;;;;;10.10;5.15;;;1075.20;614.40;;;;;;5095138;28;20020;-70
2021/08/16 11:40:46;;;;;;;11.45;5.20;;;1075.30;614.40;;;;;;5095906;28;20433;-69
2021/08/16 11:43:26;;;;;;;11.75;6.03;;;1075.30;614.40;;;;;;5095458;28;20020;-69
2021/08/16 11:46:16;;;;;;;12.30;5.32;;;1075.30;614.40;;;;;;5095182;28;20524;-69
2021/08/16 11:48:54;;;;;;;14.50;5.47;;;1075.30;614.40;;;;;;5095145;28;20064;-69
2021/08/16 11:51:30;;;;;;;9.93;5.70;;;1075.30;640.00;;;;;;5095433;28;20024;-69
2021/08/16 11:54:05;;;;;;;11.93;5.40;;;1075.30;640.00;;;;;;5095280;28;20099;-69
2021/08/16 11:56:49;;;;;;;8.95;5.22;;;1075.20;640.00;;;;;;5094925;28;20024;-70
2021/08/16 11:59:20;;;;;;;13.93;5.30;;;1075.30;640.00;;;;;;5095187;28;20024;-69
2021/08/16 12:01:50;;;;;;;9.63;5.45;;;1075.30;614.40;;;;;;5094789;28;20024;-69
2021/08/16 12:04:22;;;;;;;11.32;5.13;;;1075.30;614.40;;;;;;5074878;28;20347;-69
2021/08/16 12:06:55;;;;;;;12.15;5.68;;;1075.40;640.00;;;;;;5074747;28;20040;-69
2021/08/16 12:09:40;;;;;;;12.70;5.85;;;1075.40;614.40;;;;;;5074557;28;20033;-70
2021/08/16 12:12:17;;;;;;;13.05;5.45;;;1075.30;614.40;;;;;;5074688;28;20408;-70
2021/08/16 12:15:05;;;;;;;9.27;5.35;;;1075.30;614.40;;;;;;5074732;28;20082;-69
2021/08/16 12:17:36;;;;;;;9.50;5.10;;;1075.30;614.40;;;;;;5074441;28;20020;-70
2021/08/16 12:20:16;;;;;;;11.25;4.53;;;1075.30;614.40;;;;;;5074573;28;20379;-70
2021/08/16 12:22:58;;;;;;;10.07;5.18;;;1075.20;588.80;;;;;;5074307;28;20035;-69
2021/08/16 12:25:29;;;;;;;12.38;4.50;;;1075.20;588.80;;;;;;5074204;28;20024;-70
2021/08/16 12:28:05;;;;;;;9.68;4.55;;;1075.30;588.80;;;;;;5074085;28;20082;-69
2021/08/16 12:30:40;;;;;;;9.07;5.03;;;1075.30;614.40;;;;;;5074301;28;20112;-70
2021/08/16 12:33:14;;;;;;;9.07;4.60;;;1075.30;588.80;;;;;;5074213;28;20074;-70